Cemaes Bay, United Kingdom
Current Conditions -  °F | °C
As of 9:50 PM on Monday 26 Jan 2015 (Local Time) from EGOV Reporting Station
Few Clouds Few Clouds  
Wind Chill: 37°   Ceiling: Unl
Heat Index: 43°   Visibility: 6mi
Dew Point: 39°   Wind: 12mph
Humidity: 87%   Direction: 290°WNW
Pressure: 30.39"   Gusts: NA
Location:  53.41°N, 4.46°W
Report Text: EGOV 262150Z 29010KT 9999 FEW020 06/04 Q1029 BLU NOSIG
Loading
Personal Weather Stations






























Interactive Weather Map New forecast layout! Learn more

10-Day Weather Forecast

Advertisements
Track Severe Weather on mobile